sensor_id;sensor_type;location;lat;lon;timestamp;temperature;humidity
44277;DHT22;29973;43.742;1.236;2024-03-02T00:00:42;10.10;99.90
44277;DHT22;29973;43.742;1.236;2024-03-02T00:03:08;10.10;99.90
44277;DHT22;29973;43.742;1.236;2024-03-02T00:05:36;10.00;99.90
44277;DHT22;29973;43.742;1.236;2024-03-02T00:08:04;9.90;99.90
44277;DHT22;29973;43.742;1.236;2024-03-02T00:10:37;9.70;99.90
44277;DHT22;29973;43.742;1.236;2024-03-02T00:13:08;9.50;99.90
44277;DHT22;29973;43.742;1.236;2024-03-02T00:15:48;9.60;99.90
44277;DHT22;29973;43.742;1.236;2024-03-02T00:18:19;9.60;99.90
44277;DHT22;29973;43.742;1.236;2024-03-02T00:20:46;9.60;99.90
44277;DHT22;29973;43.742;1.236;2024-03-02T00:23:15;9.70;99.90
44277;DHT22;29973;43.742;1.236;2024-03-02T00:25:51;9.70;99.90
44277;DHT22;29973;43.742;1.236;2024-03-02T00:28:30;9.90;99.90
44277;DHT22;29973;43.742;1.236;2024-03-02T00:33:35;9.90;99.90
44277;DHT22;29973;43.742;1.236;2024-03-02T00:36:02;9.90;99.90
44277;DHT22;29973;43.742;1.236;2024-03-02T00:38:30;9.90;99.90
44277;DHT22;29973;43.742;1.236;2024-03-02T00:40:58;9.90;99.90
44277;DHT22;29973;43.742;1.236;2024-03-02T00:43:51;9.90;99.90
44277;DHT22;29973;43.742;1.236;2024-03-02T00:46:20;10.00;99.90
44277;DHT22;29973;43.742;1.236;2024-03-02T00:48:54;10.00;99.90
44277;DHT22;29973;43.742;1.236;2024-03-02T00:51:21;9.90;99.90
44277;DHT22;29973;43.742;1.236;2024-03-02T00:53:47;9.90;99.90
44277;DHT22;29973;43.742;1.236;2024-03-02T00:56:13;9.80;99.90
44277;DHT22;29973;43.742;1.236;2024-03-02T00:58:39;9.80;99.90
44277;DHT22;29973;43.742;1.236;2024-03-02T01:01:05;9.70;99.90
44277;DHT22;29973;43.742;1.236;2024-03-02T01:03:32;9.80;99.90
44277;DHT22;29973;43.742;1.236;2024-03-02T01:05:58;9.70;99.90
44277;DHT22;29973;43.742;1.236;2024-03-02T01:08:24;9.70;99.90
44277;DHT22;29973;43.742;1.236;2024-03-02T01:10:51;9.80;99.90
44277;DHT22;29973;43.742;1.236;2024-03-02T01:13:17;9.80;99.90
44277;DHT22;29973;43.742;1.236;2024-03-02T01:15:42;9.80;99.90
44277;DHT22;29973;43.742;1.236;2024-03-02T01:18:09;9.80;99.90
44277;DHT22;29973;43.742;1.236;2024-03-02T01:20:35;9.80;99.90
44277;DHT22;29973;43.742;1.236;2024-03-02T01:23:00;10.10;99.90
44277;DHT22;29973;43.742;1.236;2024-03-02T01:25:26;10.10;99.90
44277;DHT22;29973;43.742;1.236;2024-03-02T01:27:52;10.10;99.90
44277;DHT22;29973;43.742;1.236;2024-03-02T01:30:18;10.00;99.90
44277;DHT22;29973;43.742;1.236;2024-03-02T01:32:43;9.90;99.90
44277;DHT22;29973;43.742;1.236;2024-03-02T01:35:09;9.90;99.90
44277;DHT22;29973;43.742;1.236;2024-03-02T01:37:35;9.80;99.90
44277;DHT22;29973;43.742;1.236;2024-03-02T01:40:01;9.80;99.90
44277;DHT22;29973;43.742;1.236;2024-03-02T01:42:28;9.70;99.90
44277;DHT22;29973;43.742;1.236;2024-03-02T01:44:53;9.60;99.90
44277;DHT22;29973;43.742;1.236;2024-03-02T01:47:19;9.60;99.90
44277;DHT22;29973;43.742;1.236;2024-03-02T01:49:45;9.60;99.90
44277;DHT22;29973;43.742;1.236;2024-03-02T01:52:10;9.70;99.90
44277;DHT22;29973;43.742;1.236;2024-03-02T01:54:36;9.70;99.90
44277;DHT22;29973;43.742;1.236;2024-03-02T01:57:03;9.60;99.90
44277;DHT22;29973;43.742;1.236;2024-03-02T01:59:29;9.50;99.90
44277;DHT22;29973;43.742;1.236;2024-03-02T02:01:55;9.50;99.90
44277;DHT22;29973;43.742;1.236;2024-03-02T02:04:20;9.40;99.90
44277;DHT22;29973;43.742;1.236;2024-03-02T02:06:52;9.30;99.90
44277;DHT22;29973;43.742;1.236;2024-03-02T02:09:18;9.30;99.90
44277;DHT22;29973;43.742;1.236;2024-03-02T02:11:43;9.30;99.90
44277;DHT22;29973;43.742;1.236;2024-03-02T02:14:09;9.20;99.90
44277;DHT22;29973;43.742;1.236;2024-03-02T02:16:35;9.10;99.90
44277;DHT22;29973;43.742;1.236;2024-03-02T02:19:01;9.00;99.90
44277;DHT22;29973;43.742;1.236;2024-03-02T02:21:26;8.90;99.90
44277;DHT22;29973;43.742;1.236;2024-03-02T02:23:52;8.90;99.90
44277;DHT22;29973;43.742;1.236;2024-03-02T02:26:18;8.90;99.90
44277;DHT22;29973;43.742;1.236;2024-03-02T02:28:44;8.80;99.90
44277;DHT22;29973;43.742;1.236;2024-03-02T02:31:13;8.60;99.90
44277;DHT22;29973;43.742;1.236;2024-03-02T02:33:42;8.50;99.90
44277;DHT22;29973;43.742;1.236;2024-03-02T02:36:08;8.30;99.90
44277;DHT22;29973;43.742;1.236;2024-03-02T02:38:38;8.20;99.90
44277;DHT22;29973;43.742;1.236;2024-03-02T02:41:05;8.00;99.90
44277;DHT22;29973;43.742;1.236;2024-03-02T02:43:31;8.00;99.90
44277;DHT22;29973;43.742;1.236;2024-03-02T02:45:57;8.00;99.90
44277;DHT22;29973;43.742;1.236;2024-03-02T02:48:22;8.00;99.90
44277;DHT22;29973;43.742;1.236;2024-03-02T02:50:48;8.20;99.90
44277;DHT22;29973;43.742;1.236;2024-03-02T02:53:14;8.20;99.90
44277;DHT22;29973;43.742;1.236;2024-03-02T02:55:40;8.20;99.90
44277;DHT22;29973;43.742;1.236;2024-03-02T02:58:12;8.20;99.90
44277;DHT22;29973;43.742;1.236;2024-03-02T03:00:38;8.30;99.90
44277;DHT22;29973;43.742;1.236;2024-03-02T03:03:04;8.30;99.90
44277;DHT22;29973;43.742;1.236;2024-03-02T03:05:30;8.20;99.90
44277;DHT22;29973;43.742;1.236;2024-03-02T03:07:56;8.10;99.90
44277;DHT22;29973;43.742;1.236;2024-03-02T03:10:22;8.00;99.90
44277;DHT22;29973;43.742;1.236;2024-03-02T03:12:49;7.90;99.90
44277;DHT22;29973;43.742;1.236;2024-03-02T03:15:15;7.80;99.90
44277;DHT22;29973;43.742;1.236;2024-03-02T03:17:42;7.60;99.90
44277;DHT22;29973;43.742;1.236;2024-03-02T03:20:08;7.50;99.90
44277;DHT22;29973;43.742;1.236;2024-03-02T03:22:37;7.50;99.90
44277;DHT22;29973;43.742;1.236;2024-03-02T03:25:03;7.50;99.90
44277;DHT22;29973;43.742;1.236;2024-03-02T03:27:29;7.40;99.90
44277;DHT22;29973;43.742;1.236;2024-03-02T03:29:55;7.50;99.90
44277;DHT22;29973;43.742;1.236;2024-03-02T03:32:21;7.60;99.90
44277;DHT22;29973;43.742;1.236;2024-03-02T03:34:47;7.60;99.90
44277;DHT22;29973;43.742;1.236;2024-03-02T03:37:14;7.70;99.90
44277;DHT22;29973;43.742;1.236;2024-03-02T03:39:39;7.70;99.90
44277;DHT22;29973;43.742;1.236;2024-03-02T03:42:05;7.80;99.90
44277;DHT22;29973;43.742;1.236;2024-03-02T03:44:31;7.70;99.90
44277;DHT22;29973;43.742;1.236;2024-03-02T03:46:57;7.70;99.90
44277;DHT22;29973;43.742;1.236;2024-03-02T03:49:23;7.70;99.90
44277;DHT22;29973;43.742;1.236;2024-03-02T03:51:48;7.80;99.90
44277;DHT22;29973;43.742;1.236;2024-03-02T03:54:14;7.90;99.90
44277;DHT22;29973;43.742;1.236;2024-03-02T03:56:40;8.00;99.90
44277;DHT22;29973;43.742;1.236;2024-03-02T03:59:06;8.00;99.90
44277;DHT22;29973;43.742;1.236;2024-03-02T04:01:31;8.00;99.90
44277;DHT22;29973;43.742;1.236;2024-03-02T04:03:57;8.00;99.90
44277;DHT22;29973;43.742;1.236;2024-03-02T04:06:23;8.00;99.90
44277;DHT22;29973;43.742;1.236;2024-03-02T04:08:49;8.00;99.90
44277;DHT22;29973;43.742;1.236;2024-03-02T04:11:15;7.90;99.90
44277;DHT22;29973;43.742;1.236;2024-03-02T04:13:40;7.90;99.90
44277;DHT22;29973;43.742;1.236;2024-03-02T04:16:06;7.90;99.90
44277;DHT22;29973;43.742;1.236;2024-03-02T04:18:32;7.90;99.90
44277;DHT22;29973;43.742;1.236;2024-03-02T04:20:58;7.80;99.90
44277;DHT22;29973;43.742;1.236;2024-03-02T04:23:27;7.80;99.90
44277;DHT22;29973;43.742;1.236;2024-03-02T04:25:52;7.70;99.90
44277;DHT22;29973;43.742;1.236;2024-03-02T04:28:18;7.70;99.90
44277;DHT22;29973;43.742;1.236;2024-03-02T04:30:44;7.80;99.90
44277;DHT22;29973;43.742;1.236;2024-03-02T04:33:09;7.80;99.90
44277;DHT22;29973;43.742;1.236;2024-03-02T04:35:36;7.80;99.90
44277;DHT22;29973;43.742;1.236;2024-03-02T04:38:02;7.80;99.90
44277;DHT22;29973;43.742;1.236;2024-03-02T04:40:28;7.90;99.90
44277;DHT22;29973;43.742;1.236;2024-03-02T04:42:54;7.90;99.90
44277;DHT22;29973;43.742;1.236;2024-03-02T04:45:19;8.00;99.90
44277;DHT22;29973;43.742;1.236;2024-03-02T04:47:45;8.00;99.90
44277;DHT22;29973;43.742;1.236;2024-03-02T04:50:11;8.00;99.90
44277;DHT22;29973;43.742;1.236;2024-03-02T04:52:37;8.00;99.90
44277;DHT22;29973;43.742;1.236;2024-03-02T04:55:03;8.00;99.90
44277;DHT22;29973;43.742;1.236;2024-03-02T04:57:35;7.90;99.90
44277;DHT22;29973;43.742;1.236;2024-03-02T05:00:01;8.00;99.90
44277;DHT22;29973;43.742;1.236;2024-03-02T05:02:26;7.90;99.90
44277;DHT22;29973;43.742;1.236;2024-03-02T05:04:52;7.90;99.90
44277;DHT22;29973;43.742;1.236;2024-03-02T05:07:18;8.00;99.90
44277;DHT22;29973;43.742;1.236;2024-03-02T05:09:43;8.00;99.90
44277;DHT22;29973;43.742;1.236;2024-03-02T05:12:10;7.90;99.90
44277;DHT22;29973;43.742;1.236;2024-03-02T05:14:45;7.90;99.90
44277;DHT22;29973;43.742;1.236;2024-03-02T05:17:11;7.80;99.90
44277;DHT22;29973;43.742;1.236;2024-03-02T05:19:37;7.80;99.90
44277;DHT22;29973;43.742;1.236;2024-03-02T05:22:03;7.70;99.90
44277;DHT22;29973;43.742;1.236;2024-03-02T05:24:31;7.70;99.90
44277;DHT22;29973;43.742;1.236;2024-03-02T05:26:56;7.70;99.90
44277;DHT22;29973;43.742;1.236;2024-03-02T05:29:22;7.70;99.90
44277;DHT22;29973;43.742;1.236;2024-03-02T05:31:48;7.70;99.90
44277;DHT22;29973;43.742;1.236;2024-03-02T05:34:14;7.60;99.90
44277;DHT22;29973;43.742;1.236;2024-03-02T05:36:40;7.60;99.90
44277;DHT22;29973;43.742;1.236;2024-03-02T05:39:05;7.50;99.90
44277;DHT22;29973;43.742;1.236;2024-03-02T05:41:34;7.50;99.90
44277;DHT22;29973;43.742;1.236;2024-03-02T05:44:00;7.60;99.90
44277;DHT22;29973;43.742;1.236;2024-03-02T05:46:27;7.50;99.90
44277;DHT22;29973;43.742;1.236;2024-03-02T05:48:53;7.50;99.90
44277;DHT22;29973;43.742;1.236;2024-03-02T05:51:19;7.40;99.90
44277;DHT22;29973;43.742;1.236;2024-03-02T05:53:44;7.40;99.90
44277;DHT22;29973;43.742;1.236;2024-03-02T05:56:10;7.30;99.90
44277;DHT22;29973;43.742;1.236;2024-03-02T05:58:37;7.30;99.90
44277;DHT22;29973;43.742;1.236;2024-03-02T06:01:33;7.20;99.90
44277;DHT22;29973;43.742;1.236;2024-03-02T06:03:59;7.30;99.90
44277;DHT22;29973;43.742;1.236;2024-03-02T06:06:25;7.20;99.90
44277;DHT22;29973;43.742;1.236;2024-03-02T06:08:51;7.20;99.90
44277;DHT22;29973;43.742;1.236;2024-03-02T06:11:19;7.20;99.90
44277;DHT22;29973;43.742;1.236;2024-03-02T06:13:44;7.10;99.90
44277;DHT22;29973;43.742;1.236;2024-03-02T06:16:10;7.10;99.90
44277;DHT22;29973;43.742;1.236;2024-03-02T06:18:36;7.10;99.90
44277;DHT22;29973;43.742;1.236;2024-03-02T06:21:02;7.10;99.90
44277;DHT22;29973;43.742;1.236;2024-03-02T06:23:28;7.00;99.90
44277;DHT22;29973;43.742;1.236;2024-03-02T06:25:54;7.00;99.90
44277;DHT22;29973;43.742;1.236;2024-03-02T06:28:20;7.00;99.90
44277;DHT22;29973;43.742;1.236;2024-03-02T06:30:46;7.00;99.90
44277;DHT22;29973;43.742;1.236;2024-03-02T06:33:12;7.00;99.90
44277;DHT22;29973;43.742;1.236;2024-03-02T06:35:37;7.00;99.90
44277;DHT22;29973;43.742;1.236;2024-03-02T06:38:04;7.00;99.90
44277;DHT22;29973;43.742;1.236;2024-03-02T06:40:30;7.00;99.90
44277;DHT22;29973;43.742;1.236;2024-03-02T06:42:55;6.90;99.90
44277;DHT22;29973;43.742;1.236;2024-03-02T06:45:23;6.80;99.90
44277;DHT22;29973;43.742;1.236;2024-03-02T06:47:49;6.80;99.90
44277;DHT22;29973;43.742;1.236;2024-03-02T06:50:14;6.80;99.90
44277;DHT22;29973;43.742;1.236;2024-03-02T06:52:40;6.90;99.90
44277;DHT22;29973;43.742;1.236;2024-03-02T06:55:06;6.90;99.90
44277;DHT22;29973;43.742;1.236;2024-03-02T06:57:32;6.90;99.90
44277;DHT22;29973;43.742;1.236;2024-03-02T06:59:58;6.90;99.90
44277;DHT22;29973;43.742;1.236;2024-03-02T07:02:27;6.90;99.90
44277;DHT22;29973;43.742;1.236;2024-03-02T07:04:54;7.00;99.90
44277;DHT22;29973;43.742;1.236;2024-03-02T07:07:19;7.00;99.90
44277;DHT22;29973;43.742;1.236;2024-03-02T07:09:45;7.00;99.90
44277;DHT22;29973;43.742;1.236;2024-03-02T07:12:11;7.10;99.90
44277;DHT22;29973;43.742;1.236;2024-03-02T07:14:37;7.10;99.90
44277;DHT22;29973;43.742;1.236;2024-03-02T07:17:37;7.10;99.90
44277;DHT22;29973;43.742;1.236;2024-03-02T07:20:03;7.20;99.90
44277;DHT22;29973;43.742;1.236;2024-03-02T07:22:32;7.20;99.90
44277;DHT22;29973;43.742;1.236;2024-03-02T07:24:58;7.30;99.90
44277;DHT22;29973;43.742;1.236;2024-03-02T07:27:24;7.30;99.90
44277;DHT22;29973;43.742;1.236;2024-03-02T07:29:50;7.40;99.90
44277;DHT22;29973;43.742;1.236;2024-03-02T07:32:15;7.50;99.90
44277;DHT22;29973;43.742;1.236;2024-03-02T07:34:41;7.50;99.90
44277;DHT22;29973;43.742;1.236;2024-03-02T07:37:06;7.60;99.90
44277;DHT22;29973;43.742;1.236;2024-03-02T07:39:32;7.80;99.90
44277;DHT22;29973;43.742;1.236;2024-03-02T07:41:58;8.00;99.90
44277;DHT22;29973;43.742;1.236;2024-03-02T07:44:24;8.00;99.90
44277;DHT22;29973;43.742;1.236;2024-03-02T07:46:50;8.00;99.90
44277;DHT22;29973;43.742;1.236;2024-03-02T07:49:16;8.20;99.90
44277;DHT22;29973;43.742;1.236;2024-03-02T07:51:43;8.10;99.90
44277;DHT22;29973;43.742;1.236;2024-03-02T07:54:09;8.10;99.90
44277;DHT22;29973;43.742;1.236;2024-03-02T07:56:35;8.20;99.90
44277;DHT22;29973;43.742;1.236;2024-03-02T07:59:04;8.20;99.90
44277;DHT22;29973;43.742;1.236;2024-03-02T08:01:31;8.40;99.90
44277;DHT22;29973;43.742;1.236;2024-03-02T08:03:57;8.70;99.90
44277;DHT22;29973;43.742;1.236;2024-03-02T08:06:25;8.80;99.90
44277;DHT22;29973;43.742;1.236;2024-03-02T08:08:53;9.10;99.90
44277;DHT22;29973;43.742;1.236;2024-03-02T08:11:20;9.20;99.90
44277;DHT22;29973;43.742;1.236;2024-03-02T08:13:46;9.30;99.90
44277;DHT22;29973;43.742;1.236;2024-03-02T08:16:12;9.70;99.90
44277;DHT22;29973;43.742;1.236;2024-03-02T08:18:37;9.80;99.90
44277;DHT22;29973;43.742;1.236;2024-03-02T08:21:03;10.00;99.90
44277;DHT22;29973;43.742;1.236;2024-03-02T08:23:29;10.30;99.90
44277;DHT22;29973;43.742;1.236;2024-03-02T08:25:55;10.10;99.90
44277;DHT22;29973;43.742;1.236;2024-03-02T08:28:21;10.10;99.90
44277;DHT22;29973;43.742;1.236;2024-03-02T08:30:47;10.20;99.90
44277;DHT22;29973;43.742;1.236;2024-03-02T08:33:12;10.20;99.90
44277;DHT22;29973;43.742;1.236;2024-03-02T08:35:38;10.40;99.90
44277;DHT22;29973;43.742;1.236;2024-03-02T08:38:04;10.50;99.90
44277;DHT22;29973;43.742;1.236;2024-03-02T08:40:31;10.40;99.90
44277;DHT22;29973;43.742;1.236;2024-03-02T08:42:57;10.20;99.90
44277;DHT22;29973;43.742;1.236;2024-03-02T08:45:23;10.20;99.90
44277;DHT22;29973;43.742;1.236;2024-03-02T08:47:49;10.30;99.90
44277;DHT22;29973;43.742;1.236;2024-03-02T08:50:15;10.40;99.90
44277;DHT22;29973;43.742;1.236;2024-03-02T08:52:40;10.20;99.90
44277;DHT22;29973;43.742;1.236;2024-03-02T08:55:07;10.30;99.90
44277;DHT22;29973;43.742;1.236;2024-03-02T08:57:33;10.20;99.90
44277;DHT22;29973;43.742;1.236;2024-03-02T08:59:59;10.10;99.90
44277;DHT22;29973;43.742;1.236;2024-03-02T09:02:25;10.10;99.90
44277;DHT22;29973;43.742;1.236;2024-03-02T09:04:51;10.20;99.90
44277;DHT22;29973;43.742;1.236;2024-03-02T09:07:17;10.20;99.90
44277;DHT22;29973;43.742;1.236;2024-03-02T09:09:43;10.30;99.90
44277;DHT22;29973;43.742;1.236;2024-03-02T09:12:09;10.40;99.90
44277;DHT22;29973;43.742;1.236;2024-03-02T09:14:35;10.30;99.90
44277;DHT22;29973;43.742;1.236;2024-03-02T09:17:02;10.50;99.90
44277;DHT22;29973;43.742;1.236;2024-03-02T09:19:29;10.60;99.90
44277;DHT22;29973;43.742;1.236;2024-03-02T09:21:54;10.80;99.90
44277;DHT22;29973;43.742;1.236;2024-03-02T09:24:21;11.10;99.90
44277;DHT22;29973;43.742;1.236;2024-03-02T09:26:47;11.00;99.90
44277;DHT22;29973;43.742;1.236;2024-03-02T09:29:13;11.00;99.90
44277;DHT22;29973;43.742;1.236;2024-03-02T09:31:42;10.70;99.90
44277;DHT22;29973;43.742;1.236;2024-03-02T09:34:08;10.70;99.90
44277;DHT22;29973;43.742;1.236;2024-03-02T09:36:34;10.60;99.90
44277;DHT22;29973;43.742;1.236;2024-03-02T09:39:00;10.50;99.90
44277;DHT22;29973;43.742;1.236;2024-03-02T09:41:26;10.50;99.90
44277;DHT22;29973;43.742;1.236;2024-03-02T09:43:51;10.60;99.90
44277;DHT22;29973;43.742;1.236;2024-03-02T09:46:18;10.50;99.90
44277;DHT22;29973;43.742;1.236;2024-03-02T09:48:44;10.50;99.90
44277;DHT22;29973;43.742;1.236;2024-03-02T09:51:10;10.50;99.90
44277;DHT22;29973;43.742;1.236;2024-03-02T09:53:37;10.50;99.90
44277;DHT22;29973;43.742;1.236;2024-03-02T09:56:03;10.50;99.90
44277;DHT22;29973;43.742;1.236;2024-03-02T09:58:30;10.50;99.90
44277;DHT22;29973;43.742;1.236;2024-03-02T10:00:56;10.50;99.90
44277;DHT22;29973;43.742;1.236;2024-03-02T10:03:23;10.60;99.90
44277;DHT22;29973;43.742;1.236;2024-03-02T10:05:52;10.60;99.90
44277;DHT22;29973;43.742;1.236;2024-03-02T10:08:18;10.60;99.90
44277;DHT22;29973;43.742;1.236;2024-03-02T10:10:44;10.80;99.90
44277;DHT22;29973;43.742;1.236;2024-03-02T10:13:11;10.70;99.90
44277;DHT22;29973;43.742;1.236;2024-03-02T10:15:39;10.90;99.90
44277;DHT22;29973;43.742;1.236;2024-03-02T10:18:11;10.90;99.90
44277;DHT22;29973;43.742;1.236;2024-03-02T10:20:38;10.90;99.90
44277;DHT22;29973;43.742;1.236;2024-03-02T10:23:13;11.00;99.90
44277;DHT22;29973;43.742;1.236;2024-03-02T10:25:40;11.10;99.90
44277;DHT22;29973;43.742;1.236;2024-03-02T10:28:06;11.10;99.90
44277;DHT22;29973;43.742;1.236;2024-03-02T10:30:32;11.20;99.90
44277;DHT22;29973;43.742;1.236;2024-03-02T10:32:58;11.30;99.90
44277;DHT22;29973;43.742;1.236;2024-03-02T10:35:26;11.40;99.90
44277;DHT22;29973;43.742;1.236;2024-03-02T10:37:55;11.50;99.90
44277;DHT22;29973;43.742;1.236;2024-03-02T10:40:24;11.70;99.90
44277;DHT22;29973;43.742;1.236;2024-03-02T10:42:50;11.70;99.90
44277;DHT22;29973;43.742;1.236;2024-03-02T10:45:20;12.00;99.90
44277;DHT22;29973;43.742;1.236;2024-03-02T10:47:48;12.00;99.90
44277;DHT22;29973;43.742;1.236;2024-03-02T10:50:14;12.20;99.90
44277;DHT22;29973;43.742;1.236;2024-03-02T10:52:40;11.90;99.90
44277;DHT22;29973;43.742;1.236;2024-03-02T10:55:07;12.00;99.90
44277;DHT22;29973;43.742;1.236;2024-03-02T10:57:53;12.30;99.90
44277;DHT22;29973;43.742;1.236;2024-03-02T11:00:20;12.40;99.90
44277;DHT22;29973;43.742;1.236;2024-03-02T11:03:10;12.40;99.90
44277;DHT22;29973;43.742;1.236;2024-03-02T11:05:38;12.60;99.90
44277;DHT22;29973;43.742;1.236;2024-03-02T11:08:08;12.90;99.90
44277;DHT22;29973;43.742;1.236;2024-03-02T11:10:41;12.90;99.90
44277;DHT22;29973;43.742;1.236;2024-03-02T11:13:11;12.90;99.90
44277;DHT22;29973;43.742;1.236;2024-03-02T11:15:40;13.10;99.90
44277;DHT22;29973;43.742;1.236;2024-03-02T11:18:09;13.00;99.90
44277;DHT22;29973;43.742;1.236;2024-03-02T11:20:40;13.10;99.90
44277;DHT22;29973;43.742;1.236;2024-03-02T11:23:10;13.00;99.90
44277;DHT22;29973;43.742;1.236;2024-03-02T11:25:36;13.00;99.90
44277;DHT22;29973;43.742;1.236;2024-03-02T11:28:04;13.20;99.90
44277;DHT22;29973;43.742;1.236;2024-03-02T11:33:02;12.90;99.90
44277;DHT22;29973;43.742;1.236;2024-03-02T11:35:33;13.10;99.90
44277;DHT22;29973;43.742;1.236;2024-03-02T11:37:59;13.30;99.90
44277;DHT22;29973;43.742;1.236;2024-03-02T11:40:25;14.00;99.90
44277;DHT22;29973;43.742;1.236;2024-03-02T11:42:51;15.00;99.90
44277;DHT22;29973;43.742;1.236;2024-03-02T11:45:17;15.50;99.90
44277;DHT22;29973;43.742;1.236;2024-03-02T11:47:50;16.70;99.90
44277;DHT22;29973;43.742;1.236;2024-03-02T11:50:35;17.20;99.90
44277;DHT22;29973;43.742;1.236;2024-03-02T11:53:05;17.80;99.90
44277;DHT22;29973;43.742;1.236;2024-03-02T11:55:37;17.90;99.90
44277;DHT22;29973;43.742;1.236;2024-03-02T11:58:07;17.80;99.90
44277;DHT22;29973;43.742;1.236;2024-03-02T12:00:33;16.90;99.90
44277;DHT22;29973;43.742;1.236;2024-03-02T12:05:30;17.30;99.90
44277;DHT22;29973;43.742;1.236;2024-03-02T12:08:03;17.30;99.90
44277;DHT22;29973;43.742;1.236;2024-03-02T12:10:30;16.80;99.90
44277;DHT22;29973;43.742;1.236;2024-03-02T12:13:06;15.90;99.90
44277;DHT22;29973;43.742;1.236;2024-03-02T12:15:34;15.70;99.90
44277;DHT22;29973;43.742;1.236;2024-03-02T12:18:01;15.80;99.90
44277;DHT22;29973;43.742;1.236;2024-03-02T12:20:31;15.50;99.90
44277;DHT22;29973;43.742;1.236;2024-03-02T12:23:02;15.30;99.90
44277;DHT22;29973;43.742;1.236;2024-03-02T12:25:30;15.10;99.90
44277;DHT22;29973;43.742;1.236;2024-03-02T12:27:58;14.60;99.90
44277;DHT22;29973;43.742;1.236;2024-03-02T12:30:29;14.40;99.90
44277;DHT22;29973;43.742;1.236;2024-03-02T12:32:55;14.80;99.90
44277;DHT22;29973;43.742;1.236;2024-03-02T12:35:21;15.30;99.90
44277;DHT22;29973;43.742;1.236;2024-03-02T12:37:52;17.50;99.90
44277;DHT22;29973;43.742;1.236;2024-03-02T12:40:19;18.30;97.50
44277;DHT22;29973;43.742;1.236;2024-03-02T12:42:49;17.30;98.80
44277;DHT22;29973;43.742;1.236;2024-03-02T12:45:15;16.60;98.80
44277;DHT22;29973;43.742;1.236;2024-03-02T12:47:42;17.60;98.80
44277;DHT22;29973;43.742;1.236;2024-03-02T12:50:09;19.80;94.10
44277;DHT22;29973;43.742;1.236;2024-03-02T12:52:35;20.20;91.70
44277;DHT22;29973;43.742;1.236;2024-03-02T12:55:05;21.70;86.80
44277;DHT22;29973;43.742;1.236;2024-03-02T12:57:33;18.90;91.50
44277;DHT22;29973;43.742;1.236;2024-03-02T13:00:04;19.00;93.20
44277;DHT22;29973;43.742;1.236;2024-03-02T13:02:35;20.20;89.60
44277;DHT22;29973;43.742;1.236;2024-03-02T13:05:02;21.80;84.40
44277;DHT22;29973;43.742;1.236;2024-03-02T13:07:28;21.60;80.90
44277;DHT22;29973;43.742;1.236;2024-03-02T13:09:55;21.60;79.50
44277;DHT22;29973;43.742;1.236;2024-03-02T13:12:23;20.20;86.60
44277;DHT22;29973;43.742;1.236;2024-03-02T13:14:53;19.80;88.60
44277;DHT22;29973;43.742;1.236;2024-03-02T13:17:20;18.70;91.50
44277;DHT22;29973;43.742;1.236;2024-03-02T13:20:06;19.90;87.60
44277;DHT22;29973;43.742;1.236;2024-03-02T13:22:33;19.50;90.70
44277;DHT22;29973;43.742;1.236;2024-03-02T13:24:59;19.70;90.90
44277;DHT22;29973;43.742;1.236;2024-03-02T13:27:26;20.20;84.60
44277;DHT22;29973;43.742;1.236;2024-03-02T13:29:52;21.80;81.00
44277;DHT22;29973;43.742;1.236;2024-03-02T13:32:18;21.80;81.30
44277;DHT22;29973;43.742;1.236;2024-03-02T13:34:49;20.70;83.80
44277;DHT22;29973;43.742;1.236;2024-03-02T13:37:15;20.80;84.60
44277;DHT22;29973;43.742;1.236;2024-03-02T13:39:40;20.00;84.50
44277;DHT22;29973;43.742;1.236;2024-03-02T13:42:11;18.90;90.40
44277;DHT22;29973;43.742;1.236;2024-03-02T13:44:39;17.70;92.20
44277;DHT22;29973;43.742;1.236;2024-03-02T13:47:04;16.50;94.40
44277;DHT22;29973;43.742;1.236;2024-03-02T13:49:31;16.10;94.80
44277;DHT22;29973;43.742;1.236;2024-03-02T13:52:02;15.90;95.30
44277;DHT22;29973;43.742;1.236;2024-03-02T13:54:30;15.90;95.00
44277;DHT22;29973;43.742;1.236;2024-03-02T13:56:56;16.30;95.60
44277;DHT22;29973;43.742;1.236;2024-03-02T13:59:24;16.40;96.10
44277;DHT22;29973;43.742;1.236;2024-03-02T14:01:50;15.70;96.20
44277;DHT22;29973;43.742;1.236;2024-03-02T14:04:16;15.40;97.60
44277;DHT22;29973;43.742;1.236;2024-03-02T14:06:43;15.50;98.40
44277;DHT22;29973;43.742;1.236;2024-03-02T14:09:09;15.60;98.70
44277;DHT22;29973;43.742;1.236;2024-03-02T14:11:35;15.40;97.80
44277;DHT22;29973;43.742;1.236;2024-03-02T14:14:01;15.30;99.40
44277;DHT22;29973;43.742;1.236;2024-03-02T14:16:27;14.80;99.10
44277;DHT22;29973;43.742;1.236;2024-03-02T14:18:53;14.80;99.40
44277;DHT22;29973;43.742;1.236;2024-03-02T14:21:19;14.60;99.40
44277;DHT22;29973;43.742;1.236;2024-03-02T14:23:45;14.70;99.90
44277;DHT22;29973;43.742;1.236;2024-03-02T14:26:10;14.90;99.90
44277;DHT22;29973;43.742;1.236;2024-03-02T14:28:36;14.90;99.60
44277;DHT22;29973;43.742;1.236;2024-03-02T14:31:02;14.80;99.80
44277;DHT22;29973;43.742;1.236;2024-03-02T14:33:28;14.60;99.80
44277;DHT22;29973;43.742;1.236;2024-03-02T14:35:53;14.50;99.90
44277;DHT22;29973;43.742;1.236;2024-03-02T14:38:20;14.40;99.90
44277;DHT22;29973;43.742;1.236;2024-03-02T14:40:45;14.30;99.90
44277;DHT22;29973;43.742;1.236;2024-03-02T14:43:11;14.20;99.90
44277;DHT22;29973;43.742;1.236;2024-03-02T14:45:37;13.90;99.90
44277;DHT22;29973;43.742;1.236;2024-03-02T14:48:03;13.90;99.90
44277;DHT22;29973;43.742;1.236;2024-03-02T14:50:29;13.80;99.90
44277;DHT22;29973;43.742;1.236;2024-03-02T14:52:55;13.80;99.90
44277;DHT22;29973;43.742;1.236;2024-03-02T14:55:25;13.80;99.90
44277;DHT22;29973;43.742;1.236;2024-03-02T14:57:51;13.80;99.90
44277;DHT22;29973;43.742;1.236;2024-03-02T15:00:17;13.80;99.90
44277;DHT22;29973;43.742;1.236;2024-03-02T15:02:43;13.80;99.90
44277;DHT22;29973;43.742;1.236;2024-03-02T15:05:09;13.80;99.90
44277;DHT22;29973;43.742;1.236;2024-03-02T15:07:34;13.80;99.90
44277;DHT22;29973;43.742;1.236;2024-03-02T15:10:00;13.70;99.90
44277;DHT22;29973;43.742;1.236;2024-03-02T15:12:25;13.70;99.90
44277;DHT22;29973;43.742;1.236;2024-03-02T15:14:51;13.80;99.90
44277;DHT22;29973;43.742;1.236;2024-03-02T15:17:17;13.80;99.90
44277;DHT22;29973;43.742;1.236;2024-03-02T15:19:44;13.80;99.90
44277;DHT22;29973;43.742;1.236;2024-03-02T15:22:10;13.90;99.90
44277;DHT22;29973;43.742;1.236;2024-03-02T15:24:36;13.80;99.90
44277;DHT22;29973;43.742;1.236;2024-03-02T15:27:02;13.60;99.90
44277;DHT22;29973;43.742;1.236;2024-03-02T15:29:30;13.70;99.90
44277;DHT22;29973;43.742;1.236;2024-03-02T15:31:57;13.60;99.90
44277;DHT22;29973;43.742;1.236;2024-03-02T15:34:22;13.50;99.90
44277;DHT22;29973;43.742;1.236;2024-03-02T15:36:49;13.50;99.90
44277;DHT22;29973;43.742;1.236;2024-03-02T15:39:15;13.60;99.90
44277;DHT22;29973;43.742;1.236;2024-03-02T15:41:40;13.60;99.90
44277;DHT22;29973;43.742;1.236;2024-03-02T15:44:07;13.60;99.90